sensor_id;sensor_type;location;lat;lon;timestamp;P1;durP1;ratioP1;P2;durP2;ratioP2
38567;SDS011;24338;48.280;10.970;2022-12-19T00:01:41;65.43;;;26.75;;
38567;SDS011;24338;48.280;10.970;2022-12-19T00:04:09;58.90;;;27.17;;
38567;SDS011;24338;48.280;10.970;2022-12-19T00:06:37;59.45;;;26.08;;
38567;SDS011;24338;48.280;10.970;2022-12-19T00:09:09;59.72;;;27.58;;
38567;SDS011;24338;48.280;10.970;2022-12-19T00:11:38;65.25;;;27.95;;
38567;SDS011;24338;48.280;10.970;2022-12-19T00:14:06;63.97;;;24.85;;
38567;SDS011;24338;48.280;10.970;2022-12-19T00:16:34;62.88;;;27.10;;
38567;SDS011;24338;48.280;10.970;2022-12-19T00:19:01;57.55;;;26.52;;
38567;SDS011;24338;48.280;10.970;2022-12-19T00:21:29;61.47;;;28.27;;
38567;SDS011;24338;48.280;10.970;2022-12-19T00:24:01;63.80;;;28.58;;
38567;SDS011;24338;48.280;10.970;2022-12-19T00:26:46;61.85;;;27.83;;
38567;SDS011;24338;48.280;10.970;2022-12-19T00:29:15;58.75;;;27.15;;
38567;SDS011;24338;48.280;10.970;2022-12-19T00:31:42;69.90;;;29.92;;
38567;SDS011;24338;48.280;10.970;2022-12-19T00:34:09;70.28;;;30.45;;
38567;SDS011;24338;48.280;10.970;2022-12-19T00:36:36;60.05;;;28.10;;
38567;SDS011;24338;48.280;10.970;2022-12-19T00:39:03;76.75;;;29.90;;
38567;SDS011;24338;48.280;10.970;2022-12-19T00:41:33;70.18;;;30.30;;
38567;SDS011;24338;48.280;10.970;2022-12-19T00:44:03;77.75;;;28.95;;
38567;SDS011;24338;48.280;10.970;2022-12-19T00:46:36;65.82;;;27.75;;
38567;SDS011;24338;48.280;10.970;2022-12-19T00:49:03;72.00;;;29.58;;
38567;SDS011;24338;48.280;10.970;2022-12-19T00:51:31;71.90;;;30.55;;
38567;SDS011;24338;48.280;10.970;2022-12-19T00:54:00;68.05;;;29.45;;
38567;SDS011;24338;48.280;10.970;2022-12-19T00:56:28;73.95;;;30.05;;
38567;SDS011;24338;48.280;10.970;2022-12-19T00:59:03;63.55;;;26.98;;
38567;SDS011;24338;48.280;10.970;2022-12-19T01:01:31;67.90;;;26.70;;
38567;SDS011;24338;48.280;10.970;2022-12-19T01:04:02;66.65;;;28.83;;
38567;SDS011;24338;48.280;10.970;2022-12-19T01:06:50;66.50;;;27.63;;
38567;SDS011;24338;48.280;10.970;2022-12-19T01:09:18;73.53;;;31.65;;
38567;SDS011;24338;48.280;10.970;2022-12-19T01:11:47;62.63;;;28.20;;
38567;SDS011;24338;48.280;10.970;2022-12-19T01:14:32;67.75;;;29.90;;
38567;SDS011;24338;48.280;10.970;2022-12-19T01:17:00;77.85;;;31.02;;
38567;SDS011;24338;48.280;10.970;2022-12-19T01:19:26;72.15;;;28.85;;
38567;SDS011;24338;48.280;10.970;2022-12-19T01:21:53;69.18;;;30.50;;
38567;SDS011;24338;48.280;10.970;2022-12-19T01:24:20;75.38;;;29.33;;
38567;SDS011;24338;48.280;10.970;2022-12-19T01:26:47;73.22;;;29.15;;
38567;SDS011;24338;48.280;10.970;2022-12-19T01:29:14;67.88;;;31.17;;
38567;SDS011;24338;48.280;10.970;2022-12-19T01:31:41;74.18;;;30.27;;
38567;SDS011;24338;48.280;10.970;2022-12-19T01:34:08;72.70;;;29.92;;
38567;SDS011;24338;48.280;10.970;2022-12-19T01:36:35;69.65;;;29.67;;
38567;SDS011;24338;48.280;10.970;2022-12-19T01:39:05;69.40;;;32.25;;
38567;SDS011;24338;48.280;10.970;2022-12-19T01:41:33;70.68;;;30.20;;
38567;SDS011;24338;48.280;10.970;2022-12-19T01:44:04;70.82;;;31.08;;
38567;SDS011;24338;48.280;10.970;2022-12-19T01:46:34;64.55;;;29.95;;
38567;SDS011;24338;48.280;10.970;2022-12-19T01:49:02;67.20;;;29.73;;
38567;SDS011;24338;48.280;10.970;2022-12-19T01:51:40;75.07;;;30.00;;
38567;SDS011;24338;48.280;10.970;2022-12-19T01:54:11;72.80;;;30.80;;
38567;SDS011;24338;48.280;10.970;2022-12-19T01:56:45;72.20;;;29.95;;
38567;SDS011;24338;48.280;10.970;2022-12-19T01:59:16;75.03;;;30.60;;
38567;SDS011;24338;48.280;10.970;2022-12-19T02:02:09;75.13;;;31.63;;
38567;SDS011;24338;48.280;10.970;2022-12-19T02:04:40;72.28;;;29.95;;
38567;SDS011;24338;48.280;10.970;2022-12-19T02:07:07;70.85;;;28.33;;
38567;SDS011;24338;48.280;10.970;2022-12-19T02:09:41;66.22;;;28.85;;
38567;SDS011;24338;48.280;10.970;2022-12-19T02:12:24;74.63;;;30.50;;
38567;SDS011;24338;48.280;10.970;2022-12-19T02:14:53;70.30;;;29.77;;
38567;SDS011;24338;48.280;10.970;2022-12-19T02:17:31;62.55;;;28.33;;
38567;SDS011;24338;48.280;10.970;2022-12-19T02:20:33;67.07;;;29.05;;
38567;SDS011;24338;48.280;10.970;2022-12-19T02:32:06;61.65;;;27.90;;
38567;SDS011;24338;48.280;10.970;2022-12-19T02:34:40;69.93;;;30.02;;
38567;SDS011;24338;48.280;10.970;2022-12-19T02:37:29;64.68;;;28.83;;
38567;SDS011;24338;48.280;10.970;2022-12-19T02:40:28;71.10;;;28.02;;
38567;SDS011;24338;48.280;10.970;2022-12-19T02:42:59;64.60;;;27.33;;
38567;SDS011;24338;48.280;10.970;2022-12-19T02:45:32;60.33;;;27.77;;
38567;SDS011;24338;48.280;10.970;2022-12-19T02:48:02;67.28;;;27.70;;
38567;SDS011;24338;48.280;10.970;2022-12-19T02:50:38;69.85;;;32.17;;
38567;SDS011;24338;48.280;10.970;2022-12-19T02:53:14;62.60;;;27.00;;
38567;SDS011;24338;48.280;10.970;2022-12-19T03:09:16;68.65;;;29.70;;
38567;SDS011;24338;48.280;10.970;2022-12-19T03:11:56;69.03;;;29.70;;
38567;SDS011;24338;48.280;10.970;2022-12-19T03:14:42;67.95;;;29.10;;
38567;SDS011;24338;48.280;10.970;2022-12-19T03:17:11;64.65;;;28.20;;
38567;SDS011;24338;48.280;10.970;2022-12-19T03:19:38;63.30;;;27.48;;
38567;SDS011;24338;48.280;10.970;2022-12-19T03:22:06;56.95;;;26.55;;
38567;SDS011;24338;48.280;10.970;2022-12-19T03:24:33;66.07;;;28.88;;
38567;SDS011;24338;48.280;10.970;2022-12-19T03:27:10;68.55;;;28.80;;
38567;SDS011;24338;48.280;10.970;2022-12-19T03:29:43;67.78;;;27.90;;
38567;SDS011;24338;48.280;10.970;2022-12-19T03:32:11;65.50;;;26.25;;
38567;SDS011;24338;48.280;10.970;2022-12-19T03:37:19;63.22;;;26.83;;
38567;SDS011;24338;48.280;10.970;2022-12-19T03:39:51;66.00;;;27.30;;
38567;SDS011;24338;48.280;10.970;2022-12-19T03:42:23;66.03;;;28.02;;
38567;SDS011;24338;48.280;10.970;2022-12-19T03:45:10;66.35;;;27.23;;
38567;SDS011;24338;48.280;10.970;2022-12-19T03:47:47;58.72;;;25.98;;
38567;SDS011;24338;48.280;10.970;2022-12-19T03:50:17;60.85;;;26.13;;
38567;SDS011;24338;48.280;10.970;2022-12-19T03:52:45;72.20;;;29.20;;
38567;SDS011;24338;48.280;10.970;2022-12-19T03:55:35;70.53;;;29.67;;
38567;SDS011;24338;48.280;10.970;2022-12-19T03:58:15;60.72;;;26.92;;
38567;SDS011;24338;48.280;10.970;2022-12-19T04:00:49;63.85;;;28.48;;
38567;SDS011;24338;48.280;10.970;2022-12-19T04:03:17;64.80;;;27.52;;
38567;SDS011;24338;48.280;10.970;2022-12-19T04:05:46;66.78;;;29.08;;
38567;SDS011;24338;48.280;10.970;2022-12-19T04:08:14;66.88;;;30.13;;
38567;SDS011;24338;48.280;10.970;2022-12-19T04:10:46;72.75;;;30.40;;
38567;SDS011;24338;48.280;10.970;2022-12-19T04:13:34;47.53;;;19.88;;
38567;SDS011;24338;48.280;10.970;2022-12-19T04:19:14;63.92;;;27.92;;
38567;SDS011;24338;48.280;10.970;2022-12-19T04:21:52;59.25;;;27.15;;
38567;SDS011;24338;48.280;10.970;2022-12-19T04:24:27;57.85;;;26.25;;
38567;SDS011;24338;48.280;10.970;2022-12-19T04:26:59;66.68;;;30.40;;
38567;SDS011;24338;48.280;10.970;2022-12-19T04:29:29;68.07;;;29.13;;
38567;SDS011;24338;48.280;10.970;2022-12-19T04:32:00;61.83;;;29.05;;
38567;SDS011;24338;48.280;10.970;2022-12-19T04:34:28;65.55;;;29.15;;
38567;SDS011;24338;48.280;10.970;2022-12-19T04:36:55;72.85;;;29.25;;
38567;SDS011;24338;48.280;10.970;2022-12-19T04:39:23;63.40;;;27.45;;
38567;SDS011;24338;48.280;10.970;2022-12-19T04:41:49;59.13;;;26.20;;
38567;SDS011;24338;48.280;10.970;2022-12-19T04:44:16;74.22;;;29.33;;
38567;SDS011;24338;48.280;10.970;2022-12-19T04:46:43;58.00;;;24.85;;
38567;SDS011;24338;48.280;10.970;2022-12-19T04:49:10;65.20;;;28.27;;
38567;SDS011;24338;48.280;10.970;2022-12-19T04:51:37;63.10;;;26.27;;
38567;SDS011;24338;48.280;10.970;2022-12-19T04:54:04;64.90;;;29.63;;
38567;SDS011;24338;48.280;10.970;2022-12-19T04:56:30;69.88;;;29.80;;
38567;SDS011;24338;48.280;10.970;2022-12-19T04:58:58;63.80;;;29.73;;
38567;SDS011;24338;48.280;10.970;2022-12-19T05:01:25;65.43;;;26.98;;
38567;SDS011;24338;48.280;10.970;2022-12-19T05:03:52;63.63;;;27.83;;
38567;SDS011;24338;48.280;10.970;2022-12-19T05:06:25;70.80;;;30.35;;
38567;SDS011;24338;48.280;10.970;2022-12-19T05:08:51;71.28;;;28.05;;
38567;SDS011;24338;48.280;10.970;2022-12-19T05:11:18;71.03;;;29.17;;
38567;SDS011;24338;48.280;10.970;2022-12-19T05:13:45;58.85;;;27.20;;
38567;SDS011;24338;48.280;10.970;2022-12-19T05:16:12;64.30;;;28.75;;
38567;SDS011;24338;48.280;10.970;2022-12-19T05:18:41;61.22;;;29.00;;
38567;SDS011;24338;48.280;10.970;2022-12-19T05:21:09;63.47;;;27.65;;
38567;SDS011;24338;48.280;10.970;2022-12-19T05:23:36;65.45;;;30.30;;
38567;SDS011;24338;48.280;10.970;2022-12-19T05:26:04;64.82;;;29.50;;
38567;SDS011;24338;48.280;10.970;2022-12-19T05:28:32;63.65;;;29.25;;
38567;SDS011;24338;48.280;10.970;2022-12-19T05:31:03;66.78;;;28.92;;
38567;SDS011;24338;48.280;10.970;2022-12-19T05:33:39;62.17;;;26.77;;
38567;SDS011;24338;48.280;10.970;2022-12-19T05:36:06;63.30;;;28.40;;
38567;SDS011;24338;48.280;10.970;2022-12-19T05:38:34;59.65;;;29.17;;
38567;SDS011;24338;48.280;10.970;2022-12-19T05:43:36;65.55;;;25.10;;
38567;SDS011;24338;48.280;10.970;2022-12-19T05:46:03;62.15;;;26.55;;
38567;SDS011;24338;48.280;10.970;2022-12-19T05:48:31;64.03;;;29.27;;
38567;SDS011;24338;48.280;10.970;2022-12-19T05:50:57;57.55;;;25.55;;
38567;SDS011;24338;48.280;10.970;2022-12-19T05:53:24;62.80;;;27.27;;
38567;SDS011;24338;48.280;10.970;2022-12-19T05:56:03;59.60;;;27.67;;
38567;SDS011;24338;48.280;10.970;2022-12-19T05:58:34;64.45;;;26.88;;
38567;SDS011;24338;48.280;10.970;2022-12-19T06:01:05;57.92;;;28.17;;
38567;SDS011;24338;48.280;10.970;2022-12-19T06:03:34;61.38;;;27.23;;
38567;SDS011;24338;48.280;10.970;2022-12-19T06:06:05;59.72;;;27.48;;
38567;SDS011;24338;48.280;10.970;2022-12-19T06:08:34;59.83;;;28.27;;
38567;SDS011;24338;48.280;10.970;2022-12-19T06:11:02;61.78;;;26.98;;
38567;SDS011;24338;48.280;10.970;2022-12-19T06:13:30;62.15;;;26.45;;
38567;SDS011;24338;48.280;10.970;2022-12-19T06:16:01;57.97;;;26.70;;
38567;SDS011;24338;48.280;10.970;2022-12-19T06:18:29;61.38;;;26.67;;
38567;SDS011;24338;48.280;10.970;2022-12-19T06:21:01;53.35;;;24.75;;
38567;SDS011;24338;48.280;10.970;2022-12-19T06:25:57;56.80;;;25.52;;
38567;SDS011;24338;48.280;10.970;2022-12-19T06:28:25;52.85;;;26.35;;
38567;SDS011;24338;48.280;10.970;2022-12-19T06:30:57;66.68;;;29.88;;
38567;SDS011;24338;48.280;10.970;2022-12-19T06:33:25;60.28;;;26.45;;
38567;SDS011;24338;48.280;10.970;2022-12-19T06:35:59;59.05;;;26.63;;
38567;SDS011;24338;48.280;10.970;2022-12-19T06:38:31;54.40;;;24.52;;
38567;SDS011;24338;48.280;10.970;2022-12-19T06:40:59;53.22;;;25.77;;
38567;SDS011;24338;48.280;10.970;2022-12-19T06:43:47;50.70;;;25.10;;
38567;SDS011;24338;48.280;10.970;2022-12-19T06:46:18;44.15;;;20.80;;
38567;SDS011;24338;48.280;10.970;2022-12-19T06:48:45;62.13;;;27.15;;
38567;SDS011;24338;48.280;10.970;2022-12-19T06:51:12;57.28;;;27.83;;
38567;SDS011;24338;48.280;10.970;2022-12-19T06:53:39;62.05;;;27.05;;
38567;SDS011;24338;48.280;10.970;2022-12-19T06:56:06;54.60;;;27.60;;
38567;SDS011;24338;48.280;10.970;2022-12-19T06:58:33;57.15;;;25.30;;
38567;SDS011;24338;48.280;10.970;2022-12-19T07:01:00;58.35;;;26.58;;
38567;SDS011;24338;48.280;10.970;2022-12-19T07:03:29;56.13;;;26.40;;
38567;SDS011;24338;48.280;10.970;2022-12-19T07:05:59;57.70;;;26.13;;
38567;SDS011;24338;48.280;10.970;2022-12-19T07:08:27;55.88;;;27.60;;
38567;SDS011;24338;48.280;10.970;2022-12-19T07:10:55;52.17;;;25.38;;
38567;SDS011;24338;48.280;10.970;2022-12-19T07:13:23;53.85;;;26.85;;
38567;SDS011;24338;48.280;10.970;2022-12-19T07:15:50;54.78;;;25.05;;
38567;SDS011;24338;48.280;10.970;2022-12-19T07:18:18;48.90;;;27.77;;
38567;SDS011;24338;48.280;10.970;2022-12-19T07:20:46;54.20;;;26.27;;
38567;SDS011;24338;48.280;10.970;2022-12-19T07:23:13;57.78;;;25.92;;
38567;SDS011;24338;48.280;10.970;2022-12-19T07:25:43;49.95;;;23.92;;
38567;SDS011;24338;48.280;10.970;2022-12-19T07:28:10;60.35;;;28.02;;
38567;SDS011;24338;48.280;10.970;2022-12-19T07:30:37;57.28;;;28.30;;
38567;SDS011;24338;48.280;10.970;2022-12-19T07:33:03;54.25;;;26.17;;
38567;SDS011;24338;48.280;10.970;2022-12-19T07:35:30;54.75;;;25.02;;
38567;SDS011;24338;48.280;10.970;2022-12-19T07:38:04;57.88;;;27.02;;
38567;SDS011;24338;48.280;10.970;2022-12-19T07:40:32;54.42;;;27.73;;
38567;SDS011;24338;48.280;10.970;2022-12-19T07:43:01;61.63;;;30.70;;
38567;SDS011;24338;48.280;10.970;2022-12-19T07:45:31;57.15;;;27.33;;
38567;SDS011;24338;48.280;10.970;2022-12-19T07:47:58;63.13;;;32.05;;
38567;SDS011;24338;48.280;10.970;2022-12-19T07:50:29;65.45;;;30.92;;
38567;SDS011;24338;48.280;10.970;2022-12-19T07:52:57;57.47;;;29.27;;
38567;SDS011;24338;48.280;10.970;2022-12-19T07:55:25;57.10;;;29.73;;
38567;SDS011;24338;48.280;10.970;2022-12-19T07:57:52;61.42;;;28.80;;
38567;SDS011;24338;48.280;10.970;2022-12-19T08:00:20;50.85;;;26.58;;
38567;SDS011;24338;48.280;10.970;2022-12-19T08:02:48;55.65;;;25.17;;
38567;SDS011;24338;48.280;10.970;2022-12-19T08:05:15;55.05;;;26.02;;
38567;SDS011;24338;48.280;10.970;2022-12-19T08:07:42;54.90;;;26.80;;
38567;SDS011;24338;48.280;10.970;2022-12-19T08:10:09;54.63;;;27.40;;
38567;SDS011;24338;48.280;10.970;2022-12-19T08:12:37;47.05;;;24.25;;
38567;SDS011;24338;48.280;10.970;2022-12-19T08:15:04;53.95;;;26.00;;
38567;SDS011;24338;48.280;10.970;2022-12-19T08:17:33;42.92;;;24.83;;
38567;SDS011;24338;48.280;10.970;2022-12-19T08:20:00;48.28;;;25.92;;
38567;SDS011;24338;48.280;10.970;2022-12-19T08:22:28;44.75;;;24.33;;
38567;SDS011;24338;48.280;10.970;2022-12-19T08:24:56;53.38;;;26.98;;
38567;SDS011;24338;48.280;10.970;2022-12-19T08:27:23;48.55;;;24.58;;
38567;SDS011;24338;48.280;10.970;2022-12-19T08:29:50;53.85;;;25.67;;
38567;SDS011;24338;48.280;10.970;2022-12-19T08:32:18;45.95;;;23.23;;
38567;SDS011;24338;48.280;10.970;2022-12-19T08:34:47;49.85;;;25.50;;
38567;SDS011;24338;48.280;10.970;2022-12-19T08:37:15;44.40;;;24.65;;
38567;SDS011;24338;48.280;10.970;2022-12-19T08:39:42;45.83;;;23.63;;
38567;SDS011;24338;48.280;10.970;2022-12-19T08:42:09;45.33;;;23.52;;
38567;SDS011;24338;48.280;10.970;2022-12-19T08:44:36;47.55;;;25.50;;
38567;SDS011;24338;48.280;10.970;2022-12-19T08:47:03;46.78;;;24.55;;
38567;SDS011;24338;48.280;10.970;2022-12-19T08:49:30;46.85;;;24.38;;
38567;SDS011;24338;48.280;10.970;2022-12-19T08:51:57;46.05;;;23.48;;
38567;SDS011;24338;48.280;10.970;2022-12-19T08:54:24;48.20;;;24.92;;
38567;SDS011;24338;48.280;10.970;2022-12-19T08:56:52;42.97;;;22.67;;
38567;SDS011;24338;48.280;10.970;2022-12-19T08:59:19;46.67;;;23.77;;
38567;SDS011;24338;48.280;10.970;2022-12-19T09:01:57;48.13;;;25.85;;
38567;SDS011;24338;48.280;10.970;2022-12-19T09:04:25;41.35;;;23.52;;
38567;SDS011;24338;48.280;10.970;2022-12-19T09:07:13;49.03;;;25.00;;
38567;SDS011;24338;48.280;10.970;2022-12-19T09:09:41;45.08;;;24.80;;
38567;SDS011;24338;48.280;10.970;2022-12-19T09:12:09;40.40;;;24.90;;
38567;SDS011;24338;48.280;10.970;2022-12-19T09:14:38;46.30;;;23.70;;
38567;SDS011;24338;48.280;10.970;2022-12-19T09:17:05;40.78;;;21.90;;
38567;SDS011;24338;48.280;10.970;2022-12-19T09:19:32;44.78;;;23.00;;
38567;SDS011;24338;48.280;10.970;2022-12-19T09:21:59;44.83;;;23.48;;
38567;SDS011;24338;48.280;10.970;2022-12-19T09:24:26;41.03;;;23.40;;
38567;SDS011;24338;48.280;10.970;2022-12-19T09:26:53;43.03;;;23.95;;
38567;SDS011;24338;48.280;10.970;2022-12-19T09:29:20;40.58;;;22.83;;
38567;SDS011;24338;48.280;10.970;2022-12-19T09:31:48;39.33;;;21.58;;
38567;SDS011;24338;48.280;10.970;2022-12-19T09:34:25;42.47;;;21.27;;
38567;SDS011;24338;48.280;10.970;2022-12-19T09:37:07;41.53;;;22.75;;
38567;SDS011;24338;48.280;10.970;2022-12-19T09:39:43;37.65;;;19.98;;
38567;SDS011;24338;48.280;10.970;2022-12-19T09:47:24;47.03;;;24.02;;
38567;SDS011;24338;48.280;10.970;2022-12-19T09:49:54;43.13;;;23.77;;
38567;SDS011;24338;48.280;10.970;2022-12-19T09:58:12;41.08;;;22.38;;
38567;SDS011;24338;48.280;10.970;2022-12-19T10:00:55;51.17;;;26.52;;
38567;SDS011;24338;48.280;10.970;2022-12-19T10:03:35;51.58;;;26.95;;
38567;SDS011;24338;48.280;10.970;2022-12-19T10:09:11;43.40;;;23.00;;
38567;SDS011;24338;48.280;10.970;2022-12-19T10:20:41;42.03;;;23.73;;
38567;SDS011;24338;48.280;10.970;2022-12-19T10:23:39;39.15;;;21.67;;
38567;SDS011;24338;48.280;10.970;2022-12-19T10:26:20;39.85;;;22.73;;
38567;SDS011;24338;48.280;10.970;2022-12-19T10:34:34;35.92;;;20.30;;
38567;SDS011;24338;48.280;10.970;2022-12-19T10:37:13;37.40;;;21.77;;
38567;SDS011;24338;48.280;10.970;2022-12-19T10:43:02;39.25;;;23.13;;
38567;SDS011;24338;48.280;10.970;2022-12-19T10:45:49;38.97;;;21.55;;
38567;SDS011;24338;48.280;10.970;2022-12-19T10:48:20;37.00;;;20.95;;
38567;SDS011;24338;48.280;10.970;2022-12-19T10:50:56;35.47;;;21.05;;
38567;SDS011;24338;48.280;10.970;2022-12-19T10:53:27;37.92;;;22.33;;
38567;SDS011;24338;48.280;10.970;2022-12-19T10:56:10;38.97;;;22.60;;
38567;SDS011;24338;48.280;10.970;2022-12-19T10:58:40;40.45;;;23.25;;
38567;SDS011;24338;48.280;10.970;2022-12-19T11:01:20;40.42;;;23.45;;
38567;SDS011;24338;48.280;10.970;2022-12-19T11:04:11;40.70;;;24.00;;
38567;SDS011;24338;48.280;10.970;2022-12-19T11:11:57;50.00;;;30.90;;
38567;SDS011;24338;48.280;10.970;2022-12-19T11:15:29;47.42;;;25.90;;
38567;SDS011;24338;48.280;10.970;2022-12-19T11:18:05;47.80;;;24.17;;
38567;SDS011;24338;48.280;10.970;2022-12-19T11:37:46;44.67;;;26.10;;
38567;SDS011;24338;48.280;10.970;2022-12-19T11:53:42;42.42;;;25.33;;
38567;SDS011;24338;48.280;10.970;2022-12-19T11:58:44;37.10;;;22.75;;
38567;SDS011;24338;48.280;10.970;2022-12-19T12:04:22;41.65;;;25.23;;
38567;SDS011;24338;48.280;10.970;2022-12-19T12:13:17;38.78;;;23.27;;
38567;SDS011;24338;48.280;10.970;2022-12-19T12:16:13;40.75;;;25.60;;
38567;SDS011;24338;48.280;10.970;2022-12-19T12:19:11;40.05;;;23.23;;
38567;SDS011;24338;48.280;10.970;2022-12-19T12:31:42;47.75;;;26.52;;
38567;SDS011;24338;48.280;10.970;2022-12-19T12:44:26;45.65;;;28.05;;
38567;SDS011;24338;48.280;10.970;2022-12-19T12:46:39;45.72;;;28.83;;
38567;SDS011;24338;48.280;10.970;2022-12-19T12:52:03;42.70;;;26.13;;
38567;SDS011;24338;48.280;10.970;2022-12-19T12:54:34;36.50;;;22.70;;
38567;SDS011;24338;48.280;10.970;2022-12-19T12:57:04;44.20;;;26.08;;
38567;SDS011;24338;48.280;10.970;2022-12-19T12:59:32;39.55;;;25.40;;
38567;SDS011;24338;48.280;10.970;2022-12-19T13:01:59;47.00;;;27.90;;
38567;SDS011;24338;48.280;10.970;2022-12-19T13:04:55;40.88;;;26.52;;
38567;SDS011;24338;48.280;10.970;2022-12-19T13:07:28;42.53;;;28.05;;
38567;SDS011;24338;48.280;10.970;2022-12-19T13:10:22;42.90;;;26.20;;
38567;SDS011;24338;48.280;10.970;2022-12-19T13:12:56;40.35;;;26.27;;
38567;SDS011;24338;48.280;10.970;2022-12-19T13:15:49;40.83;;;25.77;;
38567;SDS011;24338;48.280;10.970;2022-12-19T13:18:32;42.08;;;27.17;;
38567;SDS011;24338;48.280;10.970;2022-12-19T13:21:03;44.05;;;27.50;;
38567;SDS011;24338;48.280;10.970;2022-12-19T13:23:33;43.05;;;26.08;;
38567;SDS011;24338;48.280;10.970;2022-12-19T13:26:41;43.22;;;28.15;;
38567;SDS011;24338;48.280;10.970;2022-12-19T13:33:10;43.55;;;27.65;;
38567;SDS011;24338;48.280;10.970;2022-12-19T13:38:04;44.17;;;28.40;;
38567;SDS011;24338;48.280;10.970;2022-12-19T13:41:24;43.00;;;27.35;;
38567;SDS011;24338;48.280;10.970;2022-12-19T13:46:39;42.70;;;26.15;;
38567;SDS011;24338;48.280;10.970;2022-12-19T13:52:00;54.83;;;32.40;;
38567;SDS011;24338;48.280;10.970;2022-12-19T13:54:29;56.17;;;35.08;;
38567;SDS011;24338;48.280;10.970;2022-12-19T13:57:00;38.42;;;22.98;;
38567;SDS011;24338;48.280;10.970;2022-12-19T13:59:36;50.80;;;29.30;;
38567;SDS011;24338;48.280;10.970;2022-12-19T14:02:16;43.28;;;27.40;;
38567;SDS011;24338;48.280;10.970;2022-12-19T14:04:52;48.53;;;30.58;;
38567;SDS011;24338;48.280;10.970;2022-12-19T14:10:03;47.45;;;28.08;;
38567;SDS011;24338;48.280;10.970;2022-12-19T14:12:53;45.28;;;29.60;;
38567;SDS011;24338;48.280;10.970;2022-12-19T14:16:02;45.42;;;29.23;;
38567;SDS011;24338;48.280;10.970;2022-12-19T14:18:30;48.70;;;30.27;;
38567;SDS011;24338;48.280;10.970;2022-12-19T14:27:01;46.30;;;29.35;;
38567;SDS011;24338;48.280;10.970;2022-12-19T14:29:52;45.00;;;27.90;;
38567;SDS011;24338;48.280;10.970;2022-12-19T14:32:39;48.40;;;29.95;;
38567;SDS011;24338;48.280;10.970;2022-12-19T14:35:29;51.60;;;30.33;;
38567;SDS011;24338;48.280;10.970;2022-12-19T14:38:20;49.58;;;31.27;;
38567;SDS011;24338;48.280;10.970;2022-12-19T14:41:44;47.55;;;30.80;;
38567;SDS011;24338;48.280;10.970;2022-12-19T14:45:00;51.15;;;32.15;;
38567;SDS011;24338;48.280;10.970;2022-12-19T14:47:40;47.00;;;28.85;;
38567;SDS011;24338;48.280;10.970;2022-12-19T14:50:34;49.25;;;29.75;;
38567;SDS011;24338;48.280;10.970;2022-12-19T14:53:23;46.03;;;30.48;;
38567;SDS011;24338;48.280;10.970;2022-12-19T14:56:16;49.38;;;32.13;;
38567;SDS011;24338;48.280;10.970;2022-12-19T14:59:04;52.63;;;34.70;;
38567;SDS011;24338;48.280;10.970;2022-12-19T15:07:20;59.65;;;39.10;;
38567;SDS011;24338;48.280;10.970;2022-12-19T15:16:03;60.95;;;36.92;;
38567;SDS011;24338;48.280;10.970;2022-12-19T15:21:05;61.55;;;37.00;;
38567;SDS011;24338;48.280;10.970;2022-12-19T15:23:35;54.25;;;35.80;;
38567;SDS011;24338;48.280;10.970;2022-12-19T15:26:12;52.42;;;33.83;;
38567;SDS011;24338;48.280;10.970;2022-12-19T15:28:43;49.10;;;31.02;;
38567;SDS011;24338;48.280;10.970;2022-12-19T15:37:01;58.03;;;34.50;;
38567;SDS011;24338;48.280;10.970;2022-12-19T15:39:28;56.65;;;35.35;;
38567;SDS011;24338;48.280;10.970;2022-12-19T15:41:56;65.47;;;38.38;;
38567;SDS011;24338;48.280;10.970;2022-12-19T15:44:38;61.53;;;37.63;;
38567;SDS011;24338;48.280;10.970;2022-12-19T15:47:13;59.05;;;37.50;;
38567;SDS011;24338;48.280;10.970;2022-12-19T15:49:48;62.92;;;38.55;;
38567;SDS011;24338;48.280;10.970;2022-12-19T15:52:18;59.90;;;34.65;;
38567;SDS011;24338;48.280;10.970;2022-12-19T15:54:47;65.22;;;36.97;;
38567;SDS011;24338;48.280;10.970;2022-12-19T15:57:38;53.72;;;33.33;;
38567;SDS011;24338;48.280;10.970;2022-12-19T16:00:05;56.28;;;33.38;;
38567;SDS011;24338;48.280;10.970;2022-12-19T16:02:50;61.35;;;37.08;;
38567;SDS011;24338;48.280;10.970;2022-12-19T16:05:38;64.05;;;38.88;;
38567;SDS011;24338;48.280;10.970;2022-12-19T16:08:16;63.80;;;41.97;;
38567;SDS011;24338;48.280;10.970;2022-12-19T16:10:50;67.65;;;41.92;;
38567;SDS011;24338;48.280;10.970;2022-12-19T16:13:31;66.63;;;42.92;;
38567;SDS011;24338;48.280;10.970;2022-12-19T16:16:00;63.65;;;40.67;;
38567;SDS011;24338;48.280;10.970;2022-12-19T16:18:38;65.25;;;44.05;;
38567;SDS011;24338;48.280;10.970;2022-12-19T16:21:04;67.32;;;46.25;;
38567;SDS011;24338;48.280;10.970;2022-12-19T16:23:31;76.47;;;45.38;;
38567;SDS011;24338;48.280;10.970;2022-12-19T16:25:58;66.88;;;43.90;;
38567;SDS011;24338;48.280;10.970;2022-12-19T16:28:27;66.18;;;40.30;;
38567;SDS011;24338;48.280;10.970;2022-12-19T16:30:56;62.45;;;42.17;;
38567;SDS011;24338;48.280;10.970;2022-12-19T16:33:25;71.10;;;42.53;;
38567;SDS011;24338;48.280;10.970;2022-12-19T16:35:54;70.22;;;44.42;;
38567;SDS011;24338;48.280;10.970;2022-12-19T16:38:31;76.68;;;46.00;;
38567;SDS011;24338;48.280;10.970;2022-12-19T16:40:58;70.60;;;42.13;;
38567;SDS011;24338;48.280;10.970;2022-12-19T16:43:27;66.70;;;40.15;;
38567;SDS011;24338;48.280;10.970;2022-12-19T16:45:57;69.25;;;43.30;;
38567;SDS011;24338;48.280;10.970;2022-12-19T16:48:27;67.15;;;40.78;;
38567;SDS011;24338;48.280;10.970;2022-12-19T16:50:58;66.65;;;40.28;;
38567;SDS011;24338;48.280;10.970;2022-12-19T16:53:25;65.32;;;38.42;;
38567;SDS011;24338;48.280;10.970;2022-12-19T16:55:52;58.65;;;37.05;;
38567;SDS011;24338;48.280;10.970;2022-12-19T16:58:22;64.28;;;41.42;;
38567;SDS011;24338;48.280;10.970;2022-12-19T17:00:51;70.03;;;40.85;;
38567;SDS011;24338;48.280;10.970;2022-12-19T17:06:16;66.15;;;39.95;;
38567;SDS011;24338;48.280;10.970;2022-12-19T17:08:44;61.42;;;40.00;;
38567;SDS011;24338;48.280;10.970;2022-12-19T17:11:12;72.43;;;42.47;;
38567;SDS011;24338;48.280;10.970;2022-12-19T17:13:42;66.55;;;40.72;;
38567;SDS011;24338;48.280;10.970;2022-12-19T17:16:11;62.70;;;36.85;;
38567;SDS011;24338;48.280;10.970;2022-12-19T17:18:39;66.15;;;38.92;;
38567;SDS011;24338;48.280;10.970;2022-12-19T17:21:09;67.13;;;40.95;;
38567;SDS011;24338;48.280;10.970;2022-12-19T17:23:44;64.95;;;39.78;;
38567;SDS011;24338;48.280;10.970;2022-12-19T17:26:12;65.80;;;39.28;;
38567;SDS011;24338;48.280;10.970;2022-12-19T17:28:43;62.45;;;38.97;;
38567;SDS011;24338;48.280;10.970;2022-12-19T17:31:21;57.10;;;36.63;;
38567;SDS011;24338;48.280;10.970;2022-12-19T17:33:50;52.45;;;32.60;;
38567;SDS011;24338;48.280;10.970;2022-12-19T17:36:19;52.03;;;31.30;;
38567;SDS011;24338;48.280;10.970;2022-12-19T17:38:52;44.45;;;29.88;;
38567;SDS011;24338;48.280;10.970;2022-12-19T17:41:19;49.17;;;32.22;;